Terminal Aerodrome Forecast
Issued by NWS Sterling, VA

Current Version | Previous Version | Graphics & Text | Print | Product List | Glossary On
Versions: 1 2 3 4 5 6 7 8 9 10 11 12 13 14 15 16 17 18 19 20 21 22 23 24
088
FTUS41 KLWX 140450 AAB
TAFDCA
TAF AMD
KDCA 140450Z 1405/1424 03006KT P6SM -DZ OVC007
     FM141500 02004KT P6SM OVC025
     FM141800 VRB03KT P6SM BKN045
     FM142200 10004KT P6SM SCT140=

USA.gov is the U.S. government's official web portal to all federal, state and local government web resources and services.